Member area
Imprimable
Bouillon, 25/04/2015, BEL - La Bouillonnante
List of reports > 56km - Classement
Search: Page: [1]
330 Entries
 
Complains are not accepted anymore. Results are final.
Category
PosNrNameAgeNATTeamRealTimeTkmMoy.PlaceNameCity
1.2041MANTEL Franck42FRAALTITUDE SANTE5:17:435:17:435:41 10.581v1hBERNARDSWILLER
2.1004LALLEMAND Geoffrey36BELTRAIL DE LA LES5:28:425:28:425:53 10.221sehPORCHERESSE
3.1005HILGER-SCHÜTZ Jerome40BELAC EIFEL5:28:425:28:425:53 10.222v1hSCHOENBERG
4.1002PASQUE Fabrice39BELTEAM TRAIL SALO5:38:065:38:066:03 9.942seh6010
5.2022VAN GULCK Olivier32BEL5:43:365:43:366:09 9.783sehBRUXELLES
6.1165CARLIN Benoit45FRAUSC NOUVION/ME5:48:275:48:276:14 9.643v1h08140
7.2091ZLOTOROWIEZ Sébastien40FRA5:54:375:54:376:20 9.484v1hESCOMBRES ET LE CHESNOIS
8.1018ALEXANDRE José49FRAUSC NOUVION SUR5:54:405:54:406:20 9.475v1h08140
9.1958DUIWKERKEN Ronnie42NLD5:55:075:55:076:21 9.466v1hLOON OP ZAND
10.1461GOEYERS Dirk34BELVAC5:56:565:56:566:23 9.414sehMACHELEN
11.1932SIROLI Ronald46BEL6:02:466:02:466:29 9.267v1hMESSANCY
12.1536HUBERT Charles32BELTCDM6:14:206:14:206:42 8.985sehMONS
13.1181CHASSAIN Vincent38FRA6:26:096:26:096:54 8.706seh57100
14.1068DEWIT Raymond45BELLES FOULÉES DU 6:26:356:26:356:55 8.698v1hFUMAL
15.1700MARTIN Samuel34FRA6:26:386:26:386:55 8.697sehSAINTE-MÉNEHOULD
16.1562JOASSIN Bruno40BELMEETING POINT6:26:596:26:596:55 8.689v1hHANNUT
17.1789PAPY Philippe43BELMEETING POINT6:28:056:28:056:56 8.6610v1hOMAL
18.1582KOTECKY Ondrej38CZEWALFER HUESEN6:31:126:31:127:00 8.598sehHELMSANGE
19.2045VERDOOT Xavier37BEL6:31:186:31:187:00 8.599sehGENVAL
20.1555COTELLE Claude52FRACA FOURMIES6:31:276:31:277:00 8.581v2hMONDREPUIS
21.1832PLASMANNE Maxime35BEL6:32:396:32:397:01 8.5610sehLASNE
22.1231FDAMMEKENS Mandy30BEL6:34:066:34:067:03 8.531sefNANNINE
23.1267DEFOSSE Bruno50FRA6:35:226:35:227:04 8.502v2hROOST WARENDIN
24.1790PAQUET Raphaël36BEL6:36:246:36:247:05 8.4811sehLES FOSSÉS
25.1844POUCET Bérenger29BELCHIMAY TRAIL AV6:36:396:36:397:05 8.4712sehCHIMAY
26.1003PAUWELS Kris45BELVOLHARDING6:37:146:37:147:06 8.4611v1hBEVEREN
27.1657LIETEN Steve40BEL6:41:036:41:037:10 8.3812v1hLUMMEN
28.1006LUYENS Yves-Noël48BELJOGGING +6:42:006:42:007:11 8.3613v1h
29.1373DUMONT Mathieu33BELMADRES6:42:306:42:307:12 8.3513sehWOLUWE
30.1156GERARD Jonathan32BEL6:43:296:43:297:13 8.3314sehFLORENVILLE
31.1605LAUNOIS Jerome30BEL6:45:056:45:057:15 8.2915sehFOREST
32.1435GENTGEN Maël28BELRUNNING TEAM6:45:066:45:067:15 8.2916sehVIRTON
33.2055VERRAUX Christophe40FRACA SEDAN6:47:016:47:017:17 8.2614v1hBAZEILLES
34.1438GERARD Jérôme32BELGTTS6:50:286:50:287:20 8.1917seh6812
35.1554JACQUES DE DIXMUDE Matthieu46BEL6:50:386:50:387:20 8.1815v1hWATERMAEL-BOISTFORT
36.1573KEMPINAIRE Bernard37BEL6:51:506:51:507:22 8.1618sehBRAIVES
37.1259DE COCK Tom35BEL6:52:176:52:177:22 8.1519sehGENK
38.1415FRANCOIS Benoît39BELTHÉODOTEMPO6:54:406:54:407:25 8.1020sehNEUFVILLES
39.1293DELRIVIERE Hubert28BEL6:55:006:55:007:25 8.1021sehLIGNE
40.2076VANDEVANDEL Christophe36BEL6:58:086:58:087:28 8.0422sehLEUZE
41.1896FROZENBERG Sandrine44BELCEPAL6:58:346:58:347:29 8.031v1fWATERLOO
42.2080ELOY Mathieu35BELFLEURUS6:59:226:59:227:30 8.0123seh
43.1376DUPUIS Thomas31BELESM6:59:486:59:487:30 8.0024sehFROIDCHAPELLE
44.1032FARDON-FRANSMAN Jolande52NLDVOORNE ATLETIEK7:03:037:03:037:34 7.941v2fOOSTVOORNE
45.1133BRANDES Sebastian34BELCOURIR À LIEUSA7:03:427:03:427:34 7.9325sehLIEUSAINT
46.1548LETESSON Guillaume29BELESM7:03:477:03:477:35 7.9326sehLEERNES
47.1733MOLLE Xavier28BEL7:05:347:05:347:36 7.9027sehBRUXELLES
48.1715WINTERS Erik34BEL7:07:367:07:367:39 7.8628sehBORNEM
49.1604LATREILLE Ludovic44FRAA.S C.R.S 23 CH7:08:257:08:257:39 7.8416v1hCHARLEVILLE-MEZIERES
50.1321DE SAUVAGE Edouard26BEL7:09:377:09:377:41 7.8229sehFOREST
51.1109BOQUÉ Didier50BELSKY RUNNER TEAM7:09:537:09:537:41 7.823v2hGRAND LEEZ
52.1678MACIEJOWSKI David41FRAATHLÉTISME CLUB7:10:037:10:037:41 7.8117v1hBERSÉE
53.1828PINCKAERS Robert51BELLA CAVE QUI COU7:10:437:10:437:42 7.804v2hHOMBOURG
54.1150BUTOR Ludovic43FRA7:14:457:14:457:46 7.7318v1hLOUCHES
55.1355DOYER Benjamin36FRA7:14:477:14:477:46 7.7330sehLOUCHES
56.1272DE GROOTE Charles28BEL7:17:117:17:117:49 7.6931sehLASNE
57.1357DUBOIS Bertrand38BELPARNASSE7:18:557:18:557:51 7.6632sehLONZEE
58.1970THIERRY Philippe48FRAECAC CHAUMONT T7:19:037:19:037:51 7.6519v1hCHAUMONT
59.2039VAN VLERKEN Sander45NLD7:20:207:20:207:52 7.6320v1hVUGHT
60.1846POUSSART Michael41BELCHIMAY TRAIL AV7:20:387:20:387:53 7.6321v1hVIRELLES
61.1711MATHY Axel27BEL7:20:577:20:577:53 7.6233sehGREZ-DOICEAU
62.1176CERCKEL Pierre49BEL7:21:027:21:027:53 7.6222v1hWATERLOO
63.1236BINGHAM Christophe44FRA7:21:127:21:127:53 7.6223v1hCAMBRAI
64.1476GRESSE Michel52BELTRAIL'IN BASTOG7:21:257:21:257:53 7.615v2hBASTOGNE
65.1349DODRIMONT Cedric31BELTRAIL'IN BASTOG7:21:297:21:297:54 7.6134sehBASTOGNE
66.1787FPAOLETTI Corinne46BELMISTRAL MARATHO7:21:297:21:297:54 7.612v2fGRANDCOURT
67.1920SCHUSTER Nicolas34FRATRAIL'IN BASTOG7:21:297:21:297:54 7.6135sehBERTOGNE
68.1494HANSSEN Roland49BELLA CAVE QUI COU7:21:307:21:307:54 7.6124v1hWARSAGE
69.1118BOUDSOCQ Stephane39FRA7:21:487:21:487:54 7.6136sehTHILAY
70.1647LEROY Philippe42FRA7:24:547:24:547:57 7.5525v1hKOENIGSMACKER
71.1938SOMVILLE Pierrot38BEL7:25:577:25:577:58 7.5337sehLIÈGE
72.1364DUCHENE Bertrand29BELELIO TEAM7:27:057:27:058:00 7.5238sehLIBRAMONT
73.1648LEROY William29FRA7:28:127:28:128:01 7.5039sehLOGNY-BOGNY
74.1979TINE Elie33FRAAS CRS 237:28:137:28:138:01 7.5040sehNOUZONVILLE
75.1978TIMMERMANS Gaëtan27BEL7:28:287:28:288:01 7.4941sehMAZY
76.1796PAULY Alain43BEL7:29:137:29:138:02 7.4826v1hSAINT-SERVAIS
77.1012AGEZ Loïc28FRA7:29:217:29:218:02 7.4842sehLA MADELEINE
78.1408FLOURY Grégory38FRAJC BULLY7:30:177:30:178:03 7.4643sehDOUVRIN
79.1691MARECHALLE Maxime31FRA7:33:377:33:378:07 7.4144sehLESQUIELLES SAINT GERMAIN
80.1805PESENTI Nicolas31FRAK RAID ARDENNES7:33:467:33:468:07 7.4045sehCHARLEVILLE-MÉZIÈRES
81.1244HAOUISEE Cedric39FRAACGN7:35:367:35:368:09 7.3746sehCHARLEVILLE-MÉZIÈRES
82.2088ZACARIAS Laurent50FRAUSC NOUVION7:35:417:35:418:09 7.376v2hVRIGNE AUX BOIS
83.1473GRÉGOIRE Vincent41BEL7:36:357:36:358:10 7.3627v1hON
84.1999VAN CUTSEM David40BEL7:36:367:36:368:10 7.3628v1hCLABECQ
85.1121BOURDINIERE Aurelien34FRAUSCN7:37:267:37:268:11 7.3547sehHAUDRECY
86.1108BOPP Robert49NLD7:37:527:37:528:11 7.3429v1hROERMOND
87.1044BAIJOT Eric49BELARCH7:38:127:38:128:11 7.3330v1hDINANT
88.1967LAOUREUX Denis41BEL7:38:357:38:358:12 7.3331v1hMEIX DEVANT VIRTON
89.1981TOUCHEQUE Grégory33BELTRAIL'IN ASTOGN7:39:097:39:098:12 7.3248sehBASTOGNE
90.1112FBORN Margot55BELAC EIFEL/ HAUTE7:39:117:39:118:12 7.321v3fSCH¨NBERG/ ST. VITH
91.1643LEPINOIS Nicolas28BELTRAIL'IN BASTOG7:39:147:39:148:13 7.3249sehBASTOGNE
92.1625LEGERE Olivier35BELLDLV7:39:267:39:268:13 7.3150sehBRUXELLES
93.1507ESTIN David38BELGINGER RUNNER7:39:287:39:288:13 7.3151seh
94.1037AUBRY William52FRAAS BOLOGNE7:39:297:39:298:13 7.317v2hRIAUCOURT
95.1463GOMREE Jean-Marc45BELTRÉVIRE TRAIL C7:40:177:40:178:14 7.3032v1hROSSIGNOL
96.1777OLIVIER Philippe52FRAX2POP7:40:297:40:298:14 7.308v2hBAILLEUL
97.1571KARELSE Jaap46NLDHAGUE ROAD RUNN7:40:557:40:558:14 7.2933v1hDEN HAAG
98.1893BOERLAGE Marco57BELRTHH7:40:597:40:598:14 7.299v2hASSEBROEK
99.2047VERELLEN Franky40BEL7:41:207:41:208:15 7.2834v1hHERSELT
100.1312DEOME Olivier34BEL7:41:247:41:248:15 7.2852sehLAMOULINE
101.2021VAN GORP Timmy35BEL7:41:417:41:418:15 7.2853sehGEEL
102.1735MONSIEURS Janik38BELAC LIERSE7:41:587:41:588:15 7.2754sehKESSEL
103.1296DELTOUR Christophe40FRAJC LAPUGNOY7:42:577:42:578:17 7.2635v1hLAPUGNOY
104.1288DELOMEZ Jérome38FRACLUB DE LAPUGNO7:43:027:43:028:17 7.2655sehPERNES
105.1813PEZZOTTA Fabien45BELLES ÉCLATÉS DE 7:44:507:44:508:19 7.2336v1hBURY
106.1100FBONNEFOY Amelie30FRA7:45:057:45:058:19 7.222sefLILLE
107.1354DOUWSMA Chris42NLD7:45:487:45:488:20 7.2137v1hHARLINGEN
108.1622LEDUC Aymeric40FRAUS MARQUETTE7:46:057:46:058:20 7.2138v1hMOUSCRON
109.1755NAESSENS Guillaume35FRA7:46:057:46:058:20 7.2156sehLILLE
110.1237DASNOIS Jérôme37FRAUSC NOUVION SUR7:47:317:47:318:21 7.1957sehBALAIVES ET BUTZ
111.1332CAMUS Renaud36FRAPSA7:47:317:47:318:21 7.1958sehCHARLEVILLE MEZIERES
112.1411FONTELLINI Didier49FRACAZENOVE7:48:297:48:298:22 7.1739v1hJEZAINVILLE
113.1860RADERMECKER Nicolas33BELGERPINNES & CO7:49:197:49:198:23 7.1659sehGOUGNIES
114.1964TASSIN Jerome41FRAUSCN-ATHLE7:49:457:49:458:24 7.1540v1hFLIZE
115.1182TIMMERMANS Jean-Philippe33BELCHIMAY TRAIL AV7:50:447:50:448:25 7.1460seh
116.1071FBERKES Celine39BELTREVIRE TRAIL C7:50:487:50:488:25 7.142v1fSAINT-MARD
117.1510HENRION Patrick57FRAFREE RUN7:51:277:51:278:26 7.1310v2h08090
118.1597LAMBORELLE Michel53BEL7:51:507:51:508:26 7.1211v2hANDENNE
119.1316DEPRETZ Sebastien34FRACCCIE7:54:297:54:298:29 7.0861sehLOMME
120.1547IMBERT Thomas37FRA7:55:067:55:068:30 7.0762sehFOURMIES
121.1881ROCHET Manu40BEL7:56:067:56:068:31 7.0641v1hFREUX
122.1581KOLENDA Stany37BELVELO SPORT PONT7:57:287:57:288:32 7.0463sehLEVAL-TRAHEGNIES
123.1676MACE Christian58FRA7:57:357:57:358:32 7.0412v2hLE PERREUX SUR MARNE
124.1340DEWEZ Michael35BEL7:58:117:58:118:33 7.0364sehOPHAIN
125.1785PALLAGE Frank50BEL7:58:567:58:568:34 7.0213v2hSELANGE
126.1472GREGOIRE Claude55BEL7:59:127:59:128:34 7.0114v2hSOMBREFFE
127.2015VAN DE VEN Charles46NLD7:59:317:59:318:34 7.0142v1hEINDHOVEN
128.2046VEREECKE Marc44BELUSBW ROAD TEAM8:00:208:00:208:35 7.0043v1hBRAINE-L'ALLEUD
129.1583KOWALCZYK Benoit30BELTEAM QU.BE8:00:208:00:208:35 7.0065sehESTINNES-AU-MONT
130.1633LEJEUNE Laurent43BELRCB8:00:278:00:278:35 6.9944v1hKRAAINEM
131.1158CANON Mathieu39BELLDLV8:00:568:00:568:36 6.9966sehBRUXELLES
132.2032VANSANTVOET Stephane39BELRUNNING TEAM 118:00:578:00:578:36 6.9967sehBRUXELLES
133.1841POSKIN Julien33BELOTC - CPMV8:02:018:02:018:37 6.9768sehNALINNES
134.1201COLON Yohan25BEL8:03:098:03:098:38 6.9569sehGOUY-LES-PIETONS
135.1651LHERNOULD Pierre37FRA8:03:228:03:228:38 6.9570sehWATERLOO
136.1164GOFFE Nicolas31BEL8:03:308:03:308:39 6.9571sehPIN
137.1021ALLEMEERSH Olivier37FRATEAM RAIDLIGHT/8:03:428:03:428:39 6.9572sehMOUSCRON
138.1384EGGERMONT Martin28BELRCB8:03:598:03:598:39 6.9473sehETTERBEEK
139.1099BONJEAN Stephane40BEL8:04:048:04:048:39 6.9445v1hBOMAL
140.1744MOUCHART Aurelien26FRA8:04:068:04:068:39 6.9474sehMARCQ EN BAROEUL
141.1659LIPA Jiri40CZE8:04:158:04:158:39 6.9446v1hMAMER
142.1161CARDINAEL Jean Luc52FRAX2POP8:05:148:05:148:40 6.9215v2hBAILLEUL
143.1193CLOUTIER Sebastien40FRAUS CHEMINOT NOU8:05:158:05:158:40 6.9247v1hSEDAN
144.1708MATHIEU Philippe54FRACTA8:06:378:06:378:42 6.9016v2hMONTCY
145.1091BOCK Bob60NLDWESTERPARK8:06:538:06:538:42 6.901v3hAMSTERDAM
146.1595FFAORD Silvye35BEL8:08:568:08:568:44 6.873v1fBRUXELLES
147.1644LEPLUS Dominique53FRA8:09:538:09:538:45 6.8617v2hSTEENWERCK
148.1320DERVILLEE David34FRALES VERTS DE TE8:10:028:10:028:46 6.8675sehORIGNY EN THIÉRACHE
149.1786PAMART Luc38FRALES X'PLATCH8:10:068:10:068:46 6.8676sehONNAING
150.1926SEVRIN Antoine42BELNAC8:10:148:10:148:46 6.8548v1hNIVELLES
151.1523FHIMBER Malory42FRATRAIL AVENTURES8:10:388:10:388:46 6.854v1fLES MESNEUX
152.1223FCULLOT Patricia53FRATRAIL-AVENTURES8:10:398:10:398:46 6.853v2fBETHENY
153.1232DANG CHAU PHIEN Olivier41BEL8:11:538:11:538:48 6.8349v1hDURBUY
154.1834PLICHARD Christophe42FRACAA8:11:548:11:548:48 6.8350v1hLEVAL
155.1254DECAUX Bertrand43FRA8:12:088:12:088:48 6.8351v1hFOURMIES
156.1479GRIMARD Bruno26BEL8:12:338:12:338:48 6.8277sehAISEAU
157.1653LIBERT Julien27BEL8:12:348:12:348:48 6.8278sehBUZET
158.1707MATHIEU Lionel48FRAUSC NOUVION SUR8:12:508:12:508:49 6.8252v1hNOUVION SUR MEUSE
159.1209COQUELET Joffrey37BEL8:13:048:13:048:49 6.8179sehBOUSSOIT
160.1928SIMONART Tanguy42BEL8:14:388:14:388:50 6.7953v1hTERVUREN
161.1953FSTEVENS Ilse38BELALVA8:14:448:14:448:51 6.795v1fAALST
162.1074BERTHET Alain57BEL8:14:478:14:478:51 6.7918v2hDION VALMONT
163.1903SAISON Gregoire31FRA8:15:498:15:498:52 6.7880sehSOLRE LE CHATEAU
164.1794PAUCOT Logan32FRA8:15:558:15:558:52 6.7881sehCLAIRFAYTS
165.1064BAYOT Bernard53BELCEPAL8:16:328:16:328:52 6.7719v2hBRUXELLES
166.1144BURNIAUX François30BEL8:16:418:16:418:53 6.7782sehUCCLE
167.1274DEKEISTER Emmanuel43FRAAC WAMBRECHIES8:17:518:17:518:54 6.7554v1hHALLUIN
168.1934SMETS Christophe51BELCEPAL8:18:478:18:478:55 6.7420v2h1030
169.1681MALCOTTE Jérôme37BELLES VERTS DE TE8:20:558:20:558:57 6.7183sehANOR
170.1526FHOFSTEDE Martine51NLD8:21:348:21:348:58 6.704v2fROTTERDAM
171.2053VERMEIREN Nico45BELAC LEBBEKE8:21:378:21:378:58 6.7055v1hBUGGENHOUT
172.1166CARON Christophe34BEL8:22:158:22:158:59 6.6984sehHENRIPONT
173.1616LECHIEN Xavier47BEL8:22:478:22:478:59 6.6856v1hIZIER
174.1063BAVAY David41BEL8:23:068:23:069:00 6.6857v1hARLON
175.1740MORLOT Damien38FRA8:23:078:23:079:00 6.6885sehHABERGY
176.1522HIGUET Alain61FRA8:25:248:25:249:02 6.652v3hVIREUX WALLERAND
177.1446GILET Gaetan37BELRAIDLIGHT TEAM8:25:328:25:329:02 6.6586sehMONT SAINT GUIBERT
178.1767NIEUWENHUIJSE Ronald47NLD8:26:518:26:519:04 6.6358v1hAMSTERDAM
179.1403FAUQUET Christophe40FRA8:27:118:27:119:04 6.6259v1hTHILAY
180.1402FAUQUENOY Sylvain31FRARUNAO TEAM8:27:298:27:299:04 6.6287sehNAMUR
181.1426GALLOIS Thierry48FRAWORLDLINE8:27:518:27:519:05 6.6260v1hGONDECOURT
182.1458GODART Fabien39FRAATHLETIC BELAIR8:28:078:28:079:05 6.6188sehCHARLEVILLE MEZIERES
183.1718MENBEUF Christophe44FRAJOGGING CROSS B8:28:098:28:099:05 6.6161v1hNOEUX LES MINES
184.1780OURDOUILLIE Vincent40FRAACF8:28:108:28:109:05 6.6162v1hMARCHIENNES
185.1646PERDRIX Serge48BELACRHO DES 5 CLO8:28:198:28:199:05 6.6163v1hCHERCQ
186.1343DIDIER Arnaud42FRAUSC NOUVION8:28:328:28:329:05 6.6164v1hNOUVION SUR MEUSE
187.1188CLAES Arnaud29BEL8:29:308:29:309:06 6.5989sehDROGENBOS
188.1487GUINET Benoit56FRATRAIL AVENTURES8:29:318:29:319:06 6.5921v2h51100
189.1268DEFOSSE Jeremy26FRAJOGGING CROSS B8:29:358:29:359:06 6.5990sehHOUDAIN
190.1535HUBEAUX Richard45BELRICHIE GUMP8:30:178:30:179:07 6.5865v1hFLAWINNE
191.1429GASPARI Alexandre38BEL8:31:198:31:199:08 6.5791sehCOURT-SAINT-ETIENNE
192.1965TERWIEL Aad54NLD8:32:088:32:089:09 6.5622v2hSCHIEDAM
193.1481DOKIA Joris27BELENDURANCE SHOP 8:32:398:32:399:10 6.5592seh
194.1466GOOSSENS Thomas30BEL11/11/11 RUNNIN8:32:518:32:519:10 6.5593sehBRUXELLES
195.1238DASNOY Julien25BEL8:33:338:33:339:11 6.5494sehBERTRIX
196.1797PAVY Samuel50FRACOURIR A BAISIE8:33:418:33:419:11 6.5423v2hCOUTICHES
197.1142BUCHET Frederic43BELUSBW/MYSTERE8:33:508:33:509:11 6.5466v1hBRAINE L'ALLEUD
198.1022ALVAREZ PEREZ Raphael39BEL8:34:138:34:139:11 6.5395sehBRUXELLES
199.1281DELAPLACE Pierre37BELSMAC8:34:248:34:249:12 6.5396sehPROFONDEVILLE
200.2063VISSE Ludovic27FRALES VIROQUOIS8:35:198:35:199:13 6.5297sehRANCENNES
201.1328ELSEN Frederic38BELCPMV8:35:238:35:239:13 6.5298seh
202.1652L'HOMME Raynald38FRAJOGGING CROSS B8:35:388:35:389:13 6.5299sehANGRES
203.1087BINKERT Marc54CHELDLV8:36:198:36:199:14 6.5124v2hGANSHOREN
204.1248DE BAENST Baudouin42BEL8:36:408:36:409:14 6.5067v1hPROFONDEVILLE
205.1409FLUCK Lionel34FRAFOMBES TRAIL TE8:36:508:36:509:14 6.50100sehSELTZ
206.1171CATFOLIS Damien40BEL8:37:088:37:089:15 6.5068v1hMOUSCRON
207.1578FGILLES Chantal57BEL8:37:498:37:499:15 6.492v3fBRUXELLES
208.1450GILLIOT Sébastien34FRAWORLDLINE8:38:178:38:179:16 6.48101sehPHALEMPIN
209.1480GRISLIN Martial47FRAVUC SPORTS NATU8:38:218:38:219:16 6.4869v1hMARESCHES
210.1200FDEMOULIN Brigitte55ITA8:38:558:38:559:16 6.483v3fSCLAYN
211.1179CHARLES Stéphane41BELJC HÉRINNES8:39:398:39:399:17 6.4770v1hHÉRINNES
212.1279DELAHAYE Yves55BEL8:40:028:40:029:18 6.4625v2hGEMBLOUX
213.1284BOUCHEZ Yannick36BEL8:40:308:40:309:18 6.46102sehSPY
214.1111HIERNAUX Yves37BELRUNNING TEAM 118:40:428:40:429:18 6.45103sehBRUSSELS
215.2056VERREYT Erwin48BELREZOO8:40:488:40:489:18 6.4571v1hLINDEN
216.1042BAETENS Damien36BEL8:42:228:42:229:20 6.43104sehNAMUR
217.1655LIEGEOIS Vincent35BELWAL'COURSE8:44:538:44:539:23 6.40105sehMONS
218.1550JACOBS François56BEL8:45:148:45:149:23 6.4026v2hOTTIGNIES
219.1656HOUTART Henri16BEL8:46:028:46:029:24 6.391eshMOUSCRON 7700
220.1470GRANDJEAN Quentin34BELGTTS8:48:488:48:489:27 6.35106sehFLORENVILLE
221.1189CLAES Laurent47BELLA CAVE QUI COU8:48:518:48:519:27 6.3572v1hNEUFCHATEAU (DALHEM)
222.1045BALBEUR Jean-Francois40BELSKYRUNNER TEAM8:49:028:49:029:27 6.3573v1hMARCHE LES DAMES
223.1623LEFEBVRE Nicolas50BELTEMPLEUVE8:49:238:49:239:28 6.3527v2hLAHAMAIDE
224.1882RODIA Frederic42BELOBJ8:49:318:49:319:28 6.3574v1hFRAMERIES
225.1801PENNE Nico35BEL8:50:448:50:449:29 6.33107sehERPE-MERE
226.1389ERGO Philippe46BELJC HÉRINNES8:50:468:50:469:29 6.3375v1hTOURNAI
227.1261DE CRAYEYE Michael44BELPOPUELLES DREAM8:50:588:50:589:29 6.3376v1hTOURNAI
228.1769NIJS Jan56NLDHAGUE ROAD RUNN8:52:488:52:489:31 6.3128v2hRIJSWIJK
229.1427GALVAIRE Christophe48FRAJC BULLY8:53:138:53:139:32 6.3077v1hANGRES
230.1468FGOURDET Marylène36FRAAS SOMMER8:53:578:53:579:33 6.296v1fGIVONNE
231.1514HEREMANS Ronald53BEL8:54:168:54:169:33 6.2929v2hOELEGEM
232.1737MOREAU Christophe42BELJOGGING CLUB DE8:55:018:55:019:34 6.2878v1hFLOBECQ
233.1009ACCARAIN Pascal55BEL8:55:178:55:179:34 6.2830v2hSAINT-GILLES
234.1827FPINCHON Ellie27FRA8:55:418:55:419:34 6.273sefSAINT ANDRÉ LEZ LILLE
235.1661LOCHER Pieter58NLDWESTERPARK8:56:128:56:129:35 6.2731v2hAMSTERDAM
236.1620LECOMTE Florent37FRAUSC NOUVION SUR8:56:558:56:559:36 6.26108sehFLIZE
237.1454FGIRARDOT Magali48FRAUSCN NOUVION8:57:078:57:079:36 6.265v2f08160
238.1180CHARNEUX Henri40FRAATHLETIC BELAIR8:57:088:57:089:36 6.2679v1hFLOING
239.1680MAHOUCHE Hubert52FRA8:58:148:58:149:37 6.2432v2hMARLY
240.1211CORDIER Adrien34FRAL' ELAN ONNAING9:00:039:00:039:39 6.22109sehONNAING
241.1770NISOL Julien32FRAL' ELAN ONNAING9:00:039:00:039:39 6.22110sehSAINT SAULVE
242.1732MOLINARI Yann33FRA9:04:439:04:439:44 6.17111sehCERFONTAINE
243.1941SPANNEUT Sebastien44BELBAC9:05:049:05:049:44 6.1680v1hRUMES
244.1760NAZÉ Olivier44BELRCNAMUR9:06:009:06:009:45 6.1581v1hVEDRIN
245.1344DIEDERLE Arnaud36FRAFOMBES TRAIL TE9:07:589:07:589:48 6.13112sehSELTZ
246.1731MOLINARD Florent31FRAATOS WORLDLINE9:08:589:08:589:49 6.12113sehLOMME
247.1877ROBERT François-Régis47FRA9:08:589:08:589:49 6.1282v1hLOOS
248.1856QUILLIOT Jean-Bernard34FRAWORLDLINE9:08:599:08:599:49 6.12114sehBOESCHEPE
249.1185CHOUVIN Guillaume35FRA9:10:349:10:349:50 6.10115sehCOURTRAI
250.1541HURET Guy55FRA9:11:369:11:369:51 6.0933v2hHASNON
251.1324DESCHUYTENEER Stéphane38BELET CHIEVRES9:11:549:11:549:52 6.09116sehLESSINES
252.1040BADI Derry43FRA9:11:579:11:579:52 6.0983v1hMERVILLE
253.1039FBADI Amelie32FRAOAH HAZEBROUCK9:12:009:12:009:52 6.094sefMERVILLE
254.1083BIARD Paul19FRA9:12:359:12:359:53 6.082eshLA CHAPELLE D'ARMENTIERES
255.1123BOUTON Olivier26FRA9:12:359:12:359:53 6.08117sehLA CHAPELLE D'ARMENTIERES
256.1792PATINY Sebastien42BEL9:12:519:12:519:53 6.0884v1hHAM SUR HEURE
257.1723MEUWIS Frédéric43BELGAG9:12:579:12:579:53 6.0885v1hGEMBLOUX
258.1331DETILLOUX André44BEL9:13:169:13:169:53 6.0786v1hLIÈGE
259.1621LECOMTE Jeff47BEL9:13:189:13:189:53 6.0787v1hWIHOGNE
260.1869FRENARD Delphine33BELSMAC9:13:359:13:359:54 6.075sefPROFONDEVILLE
261.1475GRENIER Laurent32FRA9:15:219:15:219:56 6.05118sehREIMS
262.1738MOREAU Eddy52BEL9:15:459:15:459:56 6.0534v2hSIRAULT
263.1891ROMBOUT Ive42BEL9:16:259:16:259:57 6.0488v1hZELE
264.1342FSTERKEN Janet43BEL9:16:279:16:279:57 6.047v1fUCCLE
265.1371DUFRESNOY Frederic30BEL9:16:349:16:349:57 6.04119sehANDENNE
266.1307DE NEUNHEUSER Jean-Louis49BEL9:18:059:18:059:58 6.0289v1hPIETON
267.1151BUTZ Nicolas37FRAFOMBES TRAIL TE9:18:099:18:099:59 6.02120sehTOURINNES-LA-GROSSE
268.1386ENGELS Marc52BEL9:18:199:18:199:59 6.0235v2hKRAAINEM
269.1538HUIJBERS Dennis40NLD9:20:219:20:2110:01 6.0090v1hMAARHEEZE
270.1449GILLIARD Gérard63FRAVUC SPORT NATUR9:23:219:23:2110:04 5.963v3hWALINCOURT-SELVIGNY
271.1639LEONET Maxime41BELRCBG9:26:409:26:4010:08 5.9391v1hHAUT-FAYS
272.1270DEGRAEVE Kenny30BELDAPALO9:27:349:27:3410:09 5.92121sehDADIZELE
273.2006VANDENWEGHE Juan36BELDAPALO9:27:369:27:3610:09 5.92122sehMENEN
274.1214CORNEILLIE Martino52BEL9:27:379:27:3710:09 5.9236v2hMOORSLEDE
275.1949STEINEBACH Paul50NLDVOORNE ATLETIEK9:31:019:31:0110:12 5.8837v2hROZENBURG
276.1948FSTEINEBACH Ellen49NLDVOORNE ATLETIEK9:31:029:31:0210:12 5.886v2fROZENBURG
277.2035VAN STEEN Bart54NLD9:31:239:31:2310:13 5.8838v2hUTRECHT
278.2029VAN NIGTEVECHT Ronald50NLD9:31:279:31:2710:13 5.8839v2hALMERE
279.1991TROOSTERS Christian43BEL9:32:349:32:3410:14 5.8792v1hUCCLE
280.1082BIARD Guy27FRA9:33:259:33:2510:15 5.86123sehLA CHAPELLE D'ARMENTIERES
281.1421FUMIERE Olivier36BEL9:33:309:33:3010:15 5.86124sehLA LOUVIERE
282.2079WESTRA Johan51NLDFOROXFAM9:33:429:33:4210:15 5.8640v2hANTWERPEN
283.1125BOUTON Raphaël33FRASERVINS A.C9:34:239:34:2310:16 5.85125sehESTREE-CAUCHY
284.1401FFATOUX Marine30FRASERVINS A.C9:34:239:34:2310:16 5.856sefESTREE-CAUCHY
285.1406FFLAMMANG Katia38FRACAZENOVE9:34:599:34:5910:17 5.848v1fJEZAINVILLE
286.1192FCLEMENT Murielle44FRACAZENOVE9:35:009:35:0010:17 5.849v1fPONT À MOUSSON
287.1465FGOOSSENS Annick51BELE.T.ENGHIEN9:35:079:35:0710:17 5.847v2fENGHIEN
288.1489FHAAS Suzy46FRACAZENOVE9:35:449:35:4410:17 5.848v2fPONT À MOUSSON
289.1085FBILOCQ Bénédicte40BEL9:36:309:36:3010:18 5.8310v1fLIMELETTE
290.1669LOURO FERREIRA Antonio40PRT9:37:169:37:1610:19 5.8293v1hIXELLES
291.1904SALES François51BELE.T.ENGHIEN9:39:579:39:5710:22 5.7941v2hENGHIEN
292.1031ARCHELON Frédéric42BEL9:43:199:43:1910:25 5.7694v1h7623
293.1065BECK Jacques52BELLESDAIN DLA MER9:43:209:43:2010:25 5.7642v2hHOWARDRIES
294.1115FBOSSUYT Anne-Marie46BELLESDAIN D'LA ME9:43:209:43:2010:25 5.769v2f7623
295.1954ASSELMAN Frank43BEL9:46:489:46:4810:29 5.7395v1hSINT-AMANDS
296.1502FHEEMSKERK Simone44NLD9:47:179:47:1710:30 5.7211v1fROTTERDAM
297.1469GOUWENS Marco46NLDLOOPGROEP NESSE9:47:179:47:1710:30 5.7296v1hROTTERDAM
298.1381ECHEVIN Pascal37FRA9:47:349:47:3410:30 5.72126sehCONDÉ SUR ESCAUT
299.1833PLATEAU Frédéric38FRA9:47:409:47:4010:30 5.72127sehMARCQ EN BAROEUL
300.1049BALTUS Frank49NLDHARDLOOPGROEP W9:54:109:54:1010:37 5.6697v1hAMSTERDAM
301.1124BOUTON Pierre59FRAX2POP9:57:179:57:1710:40 5.6343v2hLACHAPELLEDARMENTIERE
302.1441GERITZ Herman56NLD9:57:319:57:3110:41 5.6244v2hMIDLUM
303.1565JORDANT Benoit53BELARCH10:03:0410:03:0410:47 5.5745v2hYVOIR
304.2051VÉRITER Mathieu34BEL10:03:0510:03:0510:47 5.57128sehLA HULPE
305.1613LEBEC Nicolas38BEL10:03:3010:03:3010:47 5.57129sehSAINT SERVAIS
306.1593LAGRENET Cedric33BELJET - EUROPEAN 10:03:5310:03:5310:48 5.56130sehBRUXELLES
307.1989TRITZ Michel41FRATGV5410:03:5410:03:5410:48 5.5698v1hTIERCELET
308.2024VANHULST Jean-Philippe32BEL10:03:5510:03:5510:48 5.56131sehGENVAL
309.1667LONGEPEE Philippe54FRAPASS RUNNING10:06:5810:06:5810:51 5.5446v2hWATTRELOS
310.1853PYJECKI Jerome45FRA10:13:5710:13:5710:58 5.4799v1hMONCHY LE PREUX
311.1585KRANENDONK Jeroen46NLDHARDLOOPGROEP W10:17:1610:17:1611:02 5.44100v1hAMSTERDAM
312.1346DIRVEN Bart57NLD10:17:2410:17:2411:02 5.4447v2hZEVENBERGSCHEN HOEK
313.1710DUJACQUIER Christelle39BEL10:17:3110:17:3111:02 5.44132sehJAMIOULX
314.2027VAN KERM Olivier43BELELZOL CHAUFFAGI10:17:3310:17:3311:02 5.44101v1hRAMILLIES
315.1170CASSE Henri51BEL10:19:3710:19:3711:04 5.4248v2hSAINT-MAUR
316.1379ECCLESIA Antonio32FRAAS SOMMER10:26:4010:26:4011:12 5.36133sehSEDAN
317.1966TERWIEL Joop66NLD10:32:1010:32:1011:18 5.321v4hSCHIEDAM
318.1804PERRIER Pascal39FRA10:51:0410:51:0411:38 5.16134sehVILLERUPT
319.1927SILVERANS Philippe33BEL11:02:5711:02:5711:51 5.07135sehDINANT
320.1041BAERT Nicolas47FRAJCPLD11:04:0511:04:0511:52 5.06102v1hCAPELLE EN PEVELE
321.1848FPRIESTER Els53NLD11:09:2211:09:2211:58 5.0210v2fOOSTVOORNE
322.2009VAN DER GIESSEN Ben57NLD11:09:2711:09:2711:58 5.0249v2hBRIELLE
DSQ1242FDAVIS Jane31BELsefWATERMAEL-BOISTFORT
DSQ1210COQUELET Vincent56BELDIONCOURT6:57:306:57:30v2hDION-VALMONT
DSQ1946SPUTAEL Olivier27BEL8:09:158:09:15sehSTROMBEEK-BEVER
DNF1410FOCCROULLE Guillaume28BELTRAIL FOR FUNseh4130
DNF1430GAUSSET Olivier48BELRCBv1hBRUXELLES
DNF1553JACQUEMIN Henri34BELsehBERTRIX
DNF1641FLEPAGE Anne43BELv1fBERTRIX
DNF1594WATELET Guillaume35BELsehBRUXELLES
DNF: did not finish; DSQ: disqualified; Speed in km/h
Page: [1]